Jewett, Texas
Current Conditions -  °F | °C
As of 8:35 AM on Friday 28 Nov 2014 (Local Time) from KLXY Reporting Station
Clear Clear  
Wind Chill: 40°   Ceiling: Unl
Heat Index: 44°   Visibility: 10mi
Dew Point: 36°   Wind: 7mph
Humidity: 75%   Direction: 170°S
Pressure: 30.3"   Gusts: NA
Location:  31.36°N, 96.14°W
Report Text: KLXY 281435Z AUTO 17006KT 10SM CLR 07/02 A3030 RMK AO2 T00650024
Loading
Personal Weather Stations






























Interactive Weather Map New forecast layout! Learn more

10-Day Weather Forecast

Advertisements
Track Severe Weather on mobile